createdAt,value
2019-01-09T00:00:39.375Z,93.9
2019-01-09T00:01:39.369Z,93.4
2019-01-09T00:02:39.357Z,91.9
2019-01-09T00:03:39.424Z,92.8
2019-01-09T00:04:39.360Z,92.5
2019-01-09T00:05:39.373Z,92.6
2019-01-09T00:06:39.419Z,91.8
2019-01-09T00:07:39.355Z,91.3
2019-01-09T00:08:39.438Z,91.7
2019-01-09T00:09:39.370Z,92.5
2019-01-09T00:10:39.360Z,92.1
2019-01-09T00:11:39.369Z,93.3
2019-01-09T00:12:39.360Z,94.2
2019-01-09T00:13:39.470Z,93.6
2019-01-09T00:14:39.361Z,92.2
2019-01-09T00:15:39.356Z,96.1
2019-01-09T00:16:39.430Z,99.5
2019-01-09T00:17:39.353Z,101.2
2019-01-09T00:18:39.350Z,106.9
2019-01-09T00:19:39.352Z,108.7
2019-01-09T00:20:39.361Z,110.8
2019-01-09T00:21:39.413Z,113.6
2019-01-09T00:23:43.958Z,9.3
2019-01-09T00:24:43.848Z,19.8
2019-01-09T00:25:43.867Z,29.5
2019-01-09T00:26:43.867Z,34.7
2019-01-09T00:27:43.868Z,40.4
2019-01-09T00:28:43.936Z,45.8
2019-01-09T00:29:43.854Z,49.5
2019-01-09T00:30:43.874Z,52.4
2019-01-09T00:31:43.877Z,55.7
2019-01-09T00:32:43.933Z,57
2019-01-09T00:33:43.924Z,59.8
2019-01-09T00:34:43.867Z,62.4
2019-01-09T00:35:43.850Z,65.5
2019-01-09T00:36:43.934Z,68.2
2019-01-09T00:37:43.872Z,70.2
2019-01-09T00:38:43.863Z,71.6
2019-01-09T00:39:43.932Z,72.6
2019-01-09T00:40:43.853Z,72.3
2019-01-09T00:41:43.867Z,72
2019-01-09T00:42:43.856Z,71.3
2019-01-09T00:43:43.917Z,71.4
2019-01-09T00:44:43.868Z,71.7
2019-01-09T00:45:43.861Z,71.4
2019-01-09T00:46:43.848Z,70.5
2019-01-09T00:47:43.925Z,70.2
2019-01-09T00:48:43.851Z,69.4
2019-01-09T00:49:43.928Z,69.2
2019-01-09T00:50:43.864Z,68.7
2019-01-09T00:51:43.843Z,69
2019-01-09T00:52:43.854Z,69
2019-01-09T00:53:43.928Z,70.9
2019-01-09T00:54:43.856Z,71.9
2019-01-09T00:55:43.857Z,72.2
2019-01-09T00:56:43.844Z,73.3
2019-01-09T00:57:43.843Z,74.1
2019-01-09T00:58:43.911Z,74.1
2019-01-09T00:59:43.918Z,74.1
2019-01-09T01:00:43.854Z,74.7
2019-01-09T01:01:43.860Z,74.2
2019-01-09T01:02:43.836Z,74.7
2019-01-09T01:03:43.846Z,74.1
2019-01-09T01:04:43.912Z,73.9
2019-01-09T01:05:46.130Z,73.3
2019-01-09T01:06:43.855Z,72.2
2019-01-09T01:07:43.916Z,71.8
2019-01-09T01:08:43.902Z,71.8
2019-01-09T01:09:43.847Z,71.8
2019-01-09T01:10:43.842Z,71.4
2019-01-09T01:11:43.925Z,70.6
2019-01-09T01:12:43.852Z,70.1
2019-01-09T01:13:43.830Z,69.6
2019-01-09T01:14:43.855Z,69.6
2019-01-09T01:15:43.852Z,69.1
2019-01-09T01:16:43.909Z,69.8
2019-01-09T01:17:43.843Z,70.3
2019-01-09T01:18:43.955Z,70.7
2019-01-09T01:19:43.833Z,71.8
2019-01-09T01:20:43.844Z,74.1
2019-01-09T01:21:43.847Z,74.3
2019-01-09T01:22:43.844Z,74.3
2019-01-09T01:23:43.948Z,75.1
2019-01-09T01:24:43.829Z,73.9
2019-01-09T01:25:43.852Z,73.2
2019-01-09T01:26:43.842Z,74.4
2019-01-09T01:27:43.847Z,76.3
2019-01-09T01:28:43.913Z,76.3
2019-01-09T01:29:43.901Z,78.3
2019-01-09T01:30:43.899Z,79.1
2019-01-09T01:31:43.834Z,81.4
2019-01-09T01:32:43.846Z,83.8
2019-01-09T01:33:43.835Z,85.5
2019-01-09T01:34:43.847Z,87.1
2019-01-09T01:35:43.884Z,88
2019-01-09T01:36:43.832Z,88.3
2019-01-09T01:37:43.832Z,89.8
2019-01-09T01:38:43.844Z,90.8
2019-01-09T01:39:43.839Z,89.7
2019-01-09T01:40:43.885Z,90.6
2019-01-09T01:41:43.901Z,90.8
2019-01-09T01:42:43.897Z,91.2
2019-01-09T01:43:43.836Z,91.6
2019-01-09T01:44:43.831Z,91.8
2019-01-09T01:45:43.879Z,92.5
2019-01-09T01:46:43.816Z,93.1
2019-01-09T01:47:43.892Z,94.2
2019-01-09T01:48:43.902Z,95.9
2019-01-09T01:49:43.833Z,96.1
2019-01-09T01:50:43.827Z,96.3
2019-01-09T01:51:43.816Z,97.8
2019-01-09T01:52:43.820Z,99.7
2019-01-09T01:53:44.077Z,100.5
2019-01-09T01:54:43.822Z,101.1
2019-01-09T01:55:43.831Z,102.2
2019-01-09T01:56:43.812Z,102.3
2019-01-09T01:57:43.827Z,101.4
2019-01-09T01:58:43.915Z,101.2
2019-01-09T01:59:43.823Z,101.5
2019-01-09T02:00:43.829Z,100.8
2019-01-09T02:01:43.813Z,100.3
2019-01-09T02:02:43.804Z,100.8
2019-01-09T02:03:43.875Z,100.8
2019-01-09T02:04:43.822Z,101
2019-01-09T02:05:43.825Z,99.7
2019-01-09T02:06:43.820Z,99.6
2019-01-09T02:07:43.804Z,99.2
2019-01-09T02:08:43.827Z,98.1
2019-01-09T02:09:43.827Z,98.6
2019-01-09T02:10:43.824Z,99.3
2019-01-09T02:11:43.814Z,100
2019-01-09T02:12:43.806Z,100.6
2019-01-09T02:13:43.809Z,100.3
2019-01-09T02:14:43.819Z,99.6
2019-01-09T02:15:43.805Z,99.3
2019-01-09T02:16:43.809Z,98.3
2019-01-09T02:17:43.816Z,97.2
2019-01-09T02:18:43.805Z,96.6
2019-01-09T02:19:43.867Z,97.4
2019-01-09T02:20:43.823Z,96.3
2019-01-09T02:21:43.806Z,95.4
2019-01-09T02:22:43.811Z,94.5
2019-01-09T02:23:43.806Z,94.2
2019-01-09T02:24:43.844Z,93.3
2019-01-09T02:25:43.811Z,92.8
2019-01-09T02:26:43.878Z,92.8
2019-01-09T02:27:43.804Z,92
2019-01-09T02:28:43.855Z,90.8
2019-01-09T02:29:43.867Z,90.3
2019-01-09T02:30:43.859Z,90.7
2019-01-09T02:31:43.861Z,90.4
2019-01-09T02:32:43.807Z,91.1
2019-01-09T02:33:43.803Z,92.3
2019-01-09T02:34:43.878Z,91.5
2019-01-09T02:35:43.783Z,90.4
2019-01-09T02:36:43.798Z,90.7
2019-01-09T02:37:43.864Z,90.6
2019-01-09T02:38:43.816Z,89.1
2019-01-09T02:39:43.989Z,87.4
2019-01-09T02:40:43.781Z,87.4
2019-01-09T02:41:43.792Z,87.6
2019-01-09T02:42:43.877Z,87.3
2019-01-09T02:43:43.806Z,86.9
2019-01-09T02:44:43.808Z,87
2019-01-09T02:45:43.788Z,87
2019-01-09T02:46:43.814Z,85.6
2019-01-09T02:47:43.862Z,84.7
2019-01-09T02:48:43.793Z,83.9
2019-01-09T02:49:43.863Z,82.8
2019-01-09T02:50:43.792Z,83.2
2019-01-09T02:51:43.783Z,82.5
2019-01-09T02:52:43.798Z,82.5
2019-01-09T02:53:43.873Z,82.1
2019-01-09T02:54:43.797Z,82.4
2019-01-09T02:55:43.863Z,82.2
2019-01-09T02:56:43.791Z,82
2019-01-09T02:57:43.778Z,82.2
2019-01-09T02:58:43.786Z,81.7
2019-01-09T02:59:43.786Z,80.9
2019-01-09T03:00:43.858Z,82
2019-01-09T03:01:43.791Z,82.2
2019-01-09T03:02:43.831Z,82.2
2019-01-09T03:03:43.789Z,80.5
2019-01-09T03:04:45.269Z,79.7
2019-01-09T03:05:43.788Z,80.1
2019-01-09T03:06:43.793Z,80.1
2019-01-09T03:07:43.781Z,79.7
2019-01-09T03:08:43.784Z,80.6
2019-01-09T03:09:43.850Z,80.4
2019-01-09T03:10:43.791Z,81.1
2019-01-09T03:11:43.780Z,81.4
2019-01-09T03:12:43.783Z,80.4
2019-01-09T03:13:43.827Z,79.9
2019-01-09T03:14:43.782Z,79
2019-01-09T03:15:43.853Z,78.4
2019-01-09T03:16:43.790Z,78.1
2019-01-09T03:17:43.796Z,78
2019-01-09T03:18:43.763Z,79
2019-01-09T03:19:43.785Z,79.2
2019-01-09T03:20:43.779Z,81.8
2019-01-09T03:21:43.838Z,82.5
2019-01-09T03:22:43.778Z,83.3
2019-01-09T03:23:43.787Z,84.2
2019-01-09T03:24:43.764Z,84.8
2019-01-09T03:25:43.842Z,85.7
2019-01-09T03:26:43.781Z,85.3
2019-01-09T03:27:43.782Z,86.5
2019-01-09T03:28:43.776Z,87.8
2019-01-09T03:29:43.767Z,88.7
2019-01-09T03:30:43.787Z,89.1
2019-01-09T03:31:43.775Z,88.7
2019-01-09T03:32:43.772Z,88.8
2019-01-09T03:33:43.775Z,88.7
2019-01-09T03:34:43.842Z,87.8
2019-01-09T03:35:43.769Z,87.8
2019-01-09T03:36:43.768Z,88.6
2019-01-09T03:37:43.770Z,88.2
2019-01-09T03:38:43.779Z,89.7
2019-01-09T03:39:43.833Z,89.3
2019-01-09T03:40:43.829Z,88.3
2019-01-09T03:41:43.763Z,88.2
2019-01-09T03:42:43.771Z,87.6
2019-01-09T03:43:43.766Z,87.1
2019-01-09T03:44:43.767Z,87.6
2019-01-09T03:45:43.803Z,87.5
2019-01-09T03:46:43.758Z,86.5
2019-01-09T03:47:43.762Z,87.1
2019-01-09T03:48:43.837Z,88.7
2019-01-09T03:49:43.775Z,89.5
2019-01-09T03:50:43.766Z,90
2019-01-09T03:51:43.812Z,90.5
2019-01-09T03:52:43.828Z,90.1
2019-01-09T03:53:43.776Z,89.8
2019-01-09T03:54:43.779Z,90
2019-01-09T03:55:43.769Z,89.1
2019-01-09T03:56:43.755Z,89.2
2019-01-09T03:57:43.822Z,88.1
2019-01-09T03:58:43.755Z,87.6
2019-01-09T03:59:43.761Z,87.6
2019-01-09T04:00:43.756Z,87.3
2019-01-09T04:01:43.821Z,87.3
2019-01-09T04:02:43.809Z,86.9
2019-01-09T04:03:43.753Z,86.2
2019-01-09T04:04:43.759Z,85.5
2019-01-09T04:05:43.754Z,85.8
2019-01-09T04:06:43.834Z,86.8
2019-01-09T04:07:43.746Z,87
2019-01-09T04:08:43.750Z,86.6
2019-01-09T04:09:43.762Z,87.4
2019-01-09T04:10:43.756Z,87.6
2019-01-09T04:11:43.826Z,88.2
2019-01-09T04:12:43.885Z,88.9
2019-01-09T04:13:43.738Z,88.5
2019-01-09T04:14:43.758Z,90
2019-01-09T04:15:43.761Z,91.1
2019-01-09T04:16:43.746Z,92
2019-01-09T04:17:43.814Z,91.7
2019-01-09T04:18:43.742Z,92.5
2019-01-09T04:19:43.817Z,92.8
2019-01-09T04:20:43.748Z,94.1
2019-01-09T04:21:43.755Z,95
2019-01-09T04:22:43.754Z,95.9
2019-01-09T04:23:43.819Z,95.1
2019-01-09T04:24:43.795Z,94.6
2019-01-09T04:25:43.753Z,94.7
2019-01-09T04:26:43.751Z,93.9
2019-01-09T04:27:43.748Z,92.5
2019-01-09T04:28:43.797Z,90.8
2019-01-09T04:29:43.798Z,90
2019-01-09T04:30:43.736Z,89.4
2019-01-09T04:31:43.745Z,89.1
2019-01-09T04:32:43.747Z,89.2
2019-01-09T04:33:43.810Z,88.3
2019-01-09T04:34:43.800Z,89.5
2019-01-09T04:35:43.739Z,90.1
2019-01-09T04:36:51.244Z,89.7
2019-01-09T04:37:43.741Z,89.1
2019-01-09T04:38:43.741Z,89.5
2019-01-09T04:39:43.813Z,90.2
2019-01-09T04:40:43.737Z,89.6
2019-01-09T04:41:43.735Z,89.6
2019-01-09T04:42:43.744Z,89.8
2019-01-09T04:43:43.739Z,90.2
2019-01-09T04:44:43.815Z,89.1
2019-01-09T04:45:43.735Z,89.7
2019-01-09T04:46:43.805Z,89.6
2019-01-09T04:47:43.741Z,89.1
2019-01-09T04:48:43.747Z,88.8
2019-01-09T04:49:43.741Z,88.8
2019-01-09T04:50:43.821Z,88.6
2019-01-09T04:51:43.792Z,88.4
2019-01-09T04:52:43.746Z,88.2
2019-01-09T04:53:43.735Z,87.4
2019-01-09T04:54:43.733Z,88.6
2019-01-09T04:55:43.808Z,90
2019-01-09T04:56:43.720Z,90
2019-01-09T04:57:43.738Z,89.6
2019-01-09T04:58:43.730Z,90.2
2019-01-09T04:59:43.746Z,90.9
2019-01-09T05:00:43.791Z,89.1
2019-01-09T05:01:43.728Z,88.5
2019-01-09T05:02:43.711Z,88.1
2019-01-09T05:03:43.731Z,88.1
2019-01-09T05:04:43.801Z,89
2019-01-09T05:05:43.727Z,90.2
2019-01-09T05:06:43.736Z,89.8
2019-01-09T05:07:43.729Z,89.5
2019-01-09T05:08:43.763Z,89.1
2019-01-09T05:09:43.732Z,88.9
2019-01-09T05:10:43.783Z,89.3
2019-01-09T05:11:43.731Z,90.3
2019-01-09T05:12:43.792Z,90.9
2019-01-09T05:13:43.716Z,90.4
2019-01-09T05:14:43.791Z,89.6
2019-01-09T05:15:43.721Z,88.6
2019-01-09T05:16:43.733Z,87.7
2019-01-09T05:17:43.727Z,87.3
2019-01-09T05:18:43.788Z,86.8
2019-01-09T05:19:43.721Z,85.9
2019-01-09T05:20:43.720Z,85.6
2019-01-09T05:21:43.717Z,85.2
2019-01-09T05:22:45.918Z,86.1
2019-01-09T05:23:43.811Z,86.4
2019-01-09T05:24:45.499Z,86
2019-01-09T05:25:43.796Z,86.3
2019-01-09T05:26:43.713Z,86.3
2019-01-09T05:27:43.716Z,85.5
2019-01-09T05:28:43.739Z,84.7
2019-01-09T05:29:43.896Z,84.1
2019-01-09T05:30:43.785Z,84.1
2019-01-09T05:31:43.729Z,86.5
2019-01-09T05:32:43.735Z,87.6
2019-01-09T05:33:43.724Z,86.7
2019-01-09T05:34:43.795Z,86.9
2019-01-09T05:35:43.929Z,88.9
2019-01-09T05:36:43.724Z,90.6
2019-01-09T05:37:43.857Z,91.9
2019-01-09T05:38:43.711Z,92.5
2019-01-09T05:39:43.710Z,93.1
2019-01-09T05:40:43.758Z,92.3
2019-01-09T05:41:43.742Z,92
2019-01-09T05:42:43.833Z,92.5
2019-01-09T05:43:43.693Z,92.9
2019-01-09T05:44:43.709Z,93.1
2019-01-09T05:45:43.691Z,92.3
2019-01-09T05:46:43.684Z,92
2019-01-09T05:47:43.762Z,91.4
2019-01-09T05:48:43.709Z,91.5
2019-01-09T05:49:43.778Z,92.5
2019-01-09T05:50:43.790Z,93.7
2019-01-09T05:51:43.688Z,93.4
2019-01-09T05:52:43.721Z,92.2
2019-01-09T05:53:43.709Z,91.4
2019-01-09T05:54:43.707Z,91.1
2019-01-09T05:55:43.773Z,91.2
2019-01-09T05:56:43.702Z,91.4
2019-01-09T05:57:43.682Z,91
2019-01-09T05:58:43.704Z,92.6
2019-01-09T05:59:43.848Z,93.6
2019-01-09T06:00:43.708Z,93.6
2019-01-09T06:01:43.711Z,93.7
2019-01-09T06:02:43.685Z,94
2019-01-09T06:03:43.694Z,92.9
2019-01-09T06:04:43.746Z,91
2019-01-09T06:05:43.709Z,91
2019-01-09T06:06:43.775Z,91.7
2019-01-09T06:07:43.692Z,90.8
2019-01-09T06:08:43.707Z,90.5
2019-01-09T06:09:43.699Z,92.2
2019-01-09T06:10:43.692Z,92
2019-01-09T06:11:43.698Z,91.9
2019-01-09T06:12:43.693Z,93.7
2019-01-09T06:13:43.764Z,93.4
2019-01-09T06:14:43.717Z,93.6
2019-01-09T06:15:43.715Z,93
2019-01-09T06:16:43.715Z,92.5
2019-01-09T06:17:43.698Z,92.5
2019-01-09T06:18:43.758Z,92.1
2019-01-09T06:19:43.712Z,91.8
2019-01-09T06:20:43.706Z,91.9
2019-01-09T06:21:43.696Z,91.7
2019-01-09T06:22:43.704Z,91.2
2019-01-09T06:23:43.740Z,90
2019-01-09T06:24:43.677Z,89
2019-01-09T06:25:43.713Z,88.2
2019-01-09T06:26:43.691Z,86.7
2019-01-09T06:27:43.691Z,85.9
2019-01-09T06:28:43.764Z,85.5
2019-01-09T06:29:43.679Z,86.6
2019-01-09T06:30:43.690Z,86.2
2019-01-09T06:31:43.699Z,86.4
2019-01-09T06:32:43.698Z,86.1
2019-01-09T06:33:43.744Z,85.4
2019-01-09T06:34:43.678Z,85.3
2019-01-09T06:35:43.691Z,85.6
2019-01-09T06:36:43.748Z,86.7
2019-01-09T06:37:43.694Z,86.3
2019-01-09T06:38:43.684Z,85.1
2019-01-09T06:39:43.683Z,83.4
2019-01-09T06:40:43.658Z,82.7
2019-01-09T06:41:43.753Z,83.1
2019-01-09T06:42:43.684Z,82.7
2019-01-09T06:43:43.689Z,82.5
2019-01-09T06:44:43.694Z,81.7
2019-01-09T06:45:43.675Z,80.9
2019-01-09T06:46:43.751Z,81.3
2019-01-09T06:47:43.676Z,81.7
2019-01-09T06:48:43.673Z,81.6
2019-01-09T06:49:43.678Z,80.6
2019-01-09T06:50:43.680Z,80.2
2019-01-09T06:51:43.731Z,79.9
2019-01-09T06:52:43.681Z,78.8
2019-01-09T06:53:43.675Z,78.6
2019-01-09T06:54:43.732Z,78.9
2019-01-09T06:55:43.700Z,77.9
2019-01-09T06:56:43.657Z,78.5
2019-01-09T06:57:43.709Z,78.4
2019-01-09T06:58:43.672Z,78
2019-01-09T06:59:43.675Z,77.3
2019-01-09T07:00:43.731Z,77.7
2019-01-09T07:01:43.677Z,76.7
2019-01-09T07:02:43.665Z,75.5
2019-01-09T07:03:43.674Z,74
2019-01-09T07:04:44.772Z,73.6
2019-01-09T07:05:43.669Z,73.2
2019-01-09T07:06:43.681Z,72.6
2019-01-09T07:07:43.704Z,72.2
2019-01-09T07:08:43.761Z,71.7
2019-01-09T07:09:43.679Z,72.5
2019-01-09T07:10:43.669Z,72.4
2019-01-09T07:11:43.908Z,72
2019-01-09T07:12:43.643Z,72
2019-01-09T07:13:43.660Z,72.5
2019-01-09T07:14:43.667Z,71.9
2019-01-09T07:15:43.672Z,72.2
2019-01-09T07:16:43.729Z,73.7
2019-01-09T07:17:43.668Z,74.1
2019-01-09T07:18:43.653Z,73.6
2019-01-09T07:19:43.661Z,74
2019-01-09T07:20:43.666Z,74.2
2019-01-09T07:21:45.564Z,73.2
2019-01-09T07:22:43.656Z,73.4
2019-01-09T07:23:43.651Z,73.6
2019-01-09T07:24:43.749Z,73.8
2019-01-09T07:25:43.652Z,74.3
2019-01-09T07:26:43.666Z,74.7
2019-01-09T07:27:43.663Z,74.3
2019-01-09T07:28:43.662Z,75
2019-01-09T07:29:43.706Z,74.9
2019-01-09T07:30:43.654Z,75.2
2019-01-09T07:31:43.653Z,74.7
2019-01-09T07:32:43.705Z,73.4
2019-01-09T07:33:43.667Z,72.8
2019-01-09T07:34:43.705Z,72.4
2019-01-09T07:35:43.767Z,72.1
2019-01-09T07:36:43.654Z,72
2019-01-09T07:37:45.121Z,71.8
2019-01-09T07:38:43.647Z,72
2019-01-09T07:39:43.662Z,72.8
2019-01-09T07:40:43.701Z,73.8
2019-01-09T07:41:43.708Z,73.6
2019-01-09T07:42:43.652Z,73.2
2019-01-09T07:43:43.651Z,72.2
2019-01-09T07:44:43.716Z,72.7
2019-01-09T07:45:43.639Z,71.9
2019-01-09T07:46:43.706Z,72.7
2019-01-09T07:47:43.645Z,72.7
2019-01-09T07:48:43.646Z,73.3
2019-01-09T07:49:43.721Z,72.3
2019-01-09T07:50:43.715Z,71.5
2019-01-09T07:51:43.626Z,72.1
2019-01-09T07:52:43.652Z,72.2
2019-01-09T07:53:43.716Z,72.4
2019-01-09T07:54:43.652Z,71.8
2019-01-09T07:55:43.716Z,70.7
2019-01-09T07:56:43.637Z,70.6
2019-01-09T07:57:43.639Z,70.5
2019-01-09T07:58:43.646Z,71
2019-01-09T07:59:43.722Z,70.4
2019-01-09T08:00:43.644Z,69.4
2019-01-09T08:01:43.730Z,68.9
2019-01-09T08:02:43.626Z,69.3
2019-01-09T08:03:43.641Z,69.5
2019-01-09T08:04:43.709Z,70
2019-01-09T08:05:43.640Z,70.3
2019-01-09T08:06:43.706Z,70.3
2019-01-09T08:07:43.639Z,71.2
2019-01-09T08:08:43.646Z,70.7
2019-01-09T08:09:43.634Z,70.2
2019-01-09T08:10:43.646Z,70
2019-01-09T08:11:43.769Z,69.7
2019-01-09T08:12:43.623Z,70
2019-01-09T08:13:43.663Z,69.5
2019-01-09T08:14:43.635Z,67.9
2019-01-09T08:15:43.627Z,67.6
2019-01-09T08:16:43.635Z,67.2
2019-01-09T08:17:43.691Z,66.6
2019-01-09T08:18:43.689Z,66.6
2019-01-09T08:19:43.629Z,65.9
2019-01-09T08:20:43.637Z,65.6
2019-01-09T08:21:43.633Z,65.2
2019-01-09T08:22:43.634Z,65.7
2019-01-09T08:23:43.617Z,65
2019-01-09T08:24:43.639Z,64.2
2019-01-09T08:25:43.639Z,63.9
2019-01-09T08:26:43.638Z,63.1
2019-01-09T08:27:43.638Z,62.2
2019-01-09T08:28:43.638Z,61.8
2019-01-09T08:29:43.609Z,61.7
2019-01-09T08:30:43.704Z,61.9
2019-01-09T08:31:43.629Z,61.9
2019-01-09T08:32:43.719Z,62.9
2019-01-09T08:33:43.633Z,62.9
2019-01-09T08:34:43.623Z,62.8
2019-01-09T08:35:43.698Z,63.9
2019-01-09T08:36:43.630Z,65.3
2019-01-09T08:37:43.631Z,65.7
2019-01-09T08:38:43.625Z,64.9
2019-01-09T08:39:43.706Z,65.4
2019-01-09T08:40:43.615Z,65.1
2019-01-09T08:41:43.619Z,65
2019-01-09T08:42:43.621Z,65.4
2019-01-09T08:43:43.688Z,66.1
2019-01-09T08:44:43.623Z,67.4
2019-01-09T08:45:43.671Z,68.3
2019-01-09T08:46:43.624Z,69.2
2019-01-09T08:47:43.631Z,68.7
2019-01-09T08:48:43.624Z,68.1
2019-01-09T08:49:43.765Z,69
2019-01-09T08:50:43.639Z,69.9
2019-01-09T08:51:43.616Z,70.1
2019-01-09T08:52:43.623Z,70.2
2019-01-09T08:53:43.627Z,70.4
2019-01-09T08:54:43.682Z,70.6
2019-01-09T08:55:43.621Z,71.1
2019-01-09T08:56:43.675Z,71.8
2019-01-09T08:57:43.607Z,72
2019-01-09T08:58:43.615Z,71.1
2019-01-09T08:59:43.667Z,70.4
2019-01-09T09:00:43.625Z,69.5
2019-01-09T09:01:43.607Z,69
2019-01-09T09:02:43.680Z,68.8
2019-01-09T09:03:43.612Z,69.1
2019-01-09T09:04:43.618Z,69.8
2019-01-09T09:05:43.613Z,70.1
2019-01-09T09:06:43.613Z,70.3
2019-01-09T09:07:43.657Z,71
2019-01-09T09:08:43.601Z,70.8
2019-01-09T09:09:43.608Z,70.3
2019-01-09T09:10:43.666Z,69.7
2019-01-09T09:11:43.607Z,69
2019-01-09T09:12:43.703Z,68.5
2019-01-09T09:13:43.600Z,68.6
2019-01-09T09:14:43.618Z,68.7
2019-01-09T09:15:43.617Z,68.4
2019-01-09T09:16:43.604Z,67.3
2019-01-09T09:17:43.666Z,67.2
2019-01-09T09:18:43.657Z,67.4
2019-01-09T09:19:43.608Z,67.1
2019-01-09T09:20:43.602Z,67.6
2019-01-09T09:21:43.604Z,68.3
2019-01-09T09:22:43.615Z,69.8
2019-01-09T09:23:43.657Z,69.8
2019-01-09T09:24:43.668Z,69.5
2019-01-09T09:25:43.613Z,68.7
2019-01-09T09:26:43.666Z,69.8
2019-01-09T09:27:43.600Z,69.8
2019-01-09T09:28:43.602Z,69.9
2019-01-09T09:29:43.654Z,69.8
2019-01-09T09:30:43.602Z,70.1
2019-01-09T09:31:43.599Z,69.9
2019-01-09T09:32:43.592Z,69.1
2019-01-09T09:33:43.599Z,69.2
2019-01-09T09:34:43.632Z,69.4
2019-01-09T09:35:43.641Z,69.4
2019-01-09T09:36:43.604Z,70.3
2019-01-09T09:37:43.606Z,70
2019-01-09T09:38:43.590Z,70.9
2019-01-09T09:39:43.747Z,71.1
2019-01-09T09:40:43.592Z,72
2019-01-09T09:41:43.595Z,72.4
2019-01-09T09:42:43.601Z,71.3
2019-01-09T09:43:43.587Z,72.2
2019-01-09T09:44:43.675Z,72.1
2019-01-09T09:45:43.574Z,73.2
2019-01-09T09:46:43.661Z,74
2019-01-09T09:47:43.668Z,74.2
2019-01-09T09:48:43.594Z,73.1
2019-01-09T09:49:43.590Z,73.7
2019-01-09T09:50:43.642Z,74.1
2019-01-09T09:51:43.566Z,74.5
2019-01-09T09:52:43.641Z,73.2
2019-01-09T09:53:43.591Z,73.6
2019-01-09T09:54:43.665Z,73.1
2019-01-09T09:55:43.598Z,72.6
2019-01-09T09:56:43.572Z,72.7
2019-01-09T09:57:43.653Z,72.3
2019-01-09T09:58:43.615Z,73.6
2019-01-09T09:59:43.730Z,73.9
2019-01-09T10:00:43.655Z,73.3
2019-01-09T10:01:43.572Z,72.8
2019-01-09T10:02:43.591Z,72.7
2019-01-09T10:03:43.675Z,72.5
2019-01-09T10:04:43.658Z,71.7
2019-01-09T10:05:43.579Z,71.9
2019-01-09T10:06:43.596Z,71.4
2019-01-09T10:07:43.560Z,72
2019-01-09T10:08:43.631Z,72
2019-01-09T10:09:43.576Z,72.3
2019-01-09T10:10:43.593Z,72.9
2019-01-09T10:11:43.586Z,73.7
2019-01-09T10:12:43.633Z,73.3
2019-01-09T10:13:43.613Z,72.8
2019-01-09T10:14:43.590Z,72.9
2019-01-09T10:15:43.576Z,73.7
2019-01-09T10:16:43.575Z,73.4
2019-01-09T10:17:43.648Z,73.8
2019-01-09T10:18:43.557Z,73.9
2019-01-09T10:19:43.639Z,73.4
2019-01-09T10:20:43.581Z,72.9
2019-01-09T10:21:43.565Z,73.8
2019-01-09T10:22:43.575Z,74.5
2019-01-09T10:23:43.629Z,74.5
2019-01-09T10:24:43.580Z,74.3
2019-01-09T10:25:43.656Z,75.1
2019-01-09T10:26:43.580Z,76.1
2019-01-09T10:27:43.567Z,75.4
2019-01-09T10:28:43.573Z,74.1
2019-01-09T10:29:43.555Z,73.6
2019-01-09T10:30:43.628Z,74.6
2019-01-09T10:31:43.626Z,75.1
2019-01-09T10:32:43.567Z,75
2019-01-09T10:33:43.646Z,74.3
2019-01-09T10:34:43.556Z,74
2019-01-09T10:35:43.565Z,73.3
2019-01-09T10:36:43.569Z,72.4
2019-01-09T10:37:43.624Z,71.9
2019-01-09T10:38:44.579Z,71.2
2019-01-09T10:39:43.584Z,70.3
2019-01-09T10:40:43.625Z,69.9
2019-01-09T10:41:43.581Z,69.2
2019-01-09T10:42:43.576Z,69.4
2019-01-09T10:43:43.644Z,68.7
2019-01-09T10:44:43.559Z,68.3
2019-01-09T10:45:43.543Z,67.1
2019-01-09T10:46:43.560Z,65.3
2019-01-09T10:47:43.566Z,64.1
2019-01-09T10:48:43.614Z,63
2019-01-09T10:49:43.553Z,62.7
2019-01-09T10:50:43.628Z,62.4
2019-01-09T10:51:43.700Z,63.3
2019-01-09T10:52:43.563Z,64.6
2019-01-09T10:53:43.576Z,65.3
2019-01-09T10:54:43.553Z,64.5
2019-01-09T10:55:43.556Z,63.3
2019-01-09T10:56:43.603Z,62.9
2019-01-09T10:57:43.554Z,64.1
2019-01-09T10:58:43.553Z,64.4
2019-01-09T10:59:43.552Z,63.9
2019-01-09T11:00:43.549Z,63.3
2019-01-09T11:01:43.622Z,63.5
2019-01-09T11:02:43.539Z,63.3
2019-01-09T11:03:43.554Z,63.5
2019-01-09T11:04:43.552Z,63.9
2019-01-09T11:05:43.620Z,64.8
2019-01-09T11:06:43.553Z,64.8
2019-01-09T11:07:43.578Z,64.7
2019-01-09T11:08:46.995Z,64.8
2019-01-09T11:09:43.543Z,64.9
2019-01-09T11:10:43.606Z,65.7
2019-01-09T11:11:43.557Z,66.6
2019-01-09T11:12:43.545Z,67.7
2019-01-09T11:13:43.544Z,68.8
2019-01-09T11:14:43.611Z,69
2019-01-09T11:15:43.543Z,69.6
2019-01-09T11:16:43.552Z,71
2019-01-09T11:17:43.600Z,72.4
2019-01-09T11:18:43.526Z,72.7
2019-01-09T11:19:43.610Z,72.3
2019-01-09T11:20:43.541Z,71.9
2019-01-09T11:21:43.555Z,72.4
2019-01-09T11:22:43.544Z,72
2019-01-09T11:23:43.535Z,71
2019-01-09T11:24:43.617Z,71.5
2019-01-09T11:25:43.553Z,72
2019-01-09T11:26:43.546Z,71.7
2019-01-09T11:27:43.549Z,71.8
2019-01-09T11:28:43.536Z,72.5
2019-01-09T11:29:43.598Z,73.6
2019-01-09T11:30:43.541Z,73.8
2019-01-09T11:31:43.545Z,73.2
2019-01-09T11:32:43.538Z,72.4
2019-01-09T11:33:43.534Z,71.9
2019-01-09T11:34:43.591Z,72.6
2019-01-09T11:35:43.540Z,72.8
2019-01-09T11:36:43.617Z,72.2
2019-01-09T11:37:43.535Z,73
2019-01-09T11:38:43.524Z,73.3
2019-01-09T11:39:43.605Z,72.9
2019-01-09T11:40:43.527Z,72.9
2019-01-09T11:41:43.535Z,73.3
2019-01-09T11:42:43.631Z,73.3
2019-01-09T11:43:43.557Z,72.3
2019-01-09T11:44:43.531Z,71.4
2019-01-09T11:45:43.520Z,70.7
2019-01-09T11:46:43.528Z,70.4
2019-01-09T11:47:43.818Z,70.4
2019-01-09T11:48:43.529Z,70.6
2019-01-09T11:49:45.527Z,70.6
2019-01-09T11:50:43.508Z,70.1
2019-01-09T11:51:43.574Z,69.7
2019-01-09T11:52:43.527Z,70
2019-01-09T11:53:43.599Z,69.4
2019-01-09T11:54:43.604Z,69
2019-01-09T11:55:43.527Z,68.8
2019-01-09T11:56:43.523Z,67.9
2019-01-09T11:57:43.591Z,67.8
2019-01-09T11:58:43.517Z,68
2019-01-09T11:59:43.519Z,69.1
2019-01-09T12:00:43.742Z,69.2
2019-01-09T12:01:43.601Z,68.8
2019-01-09T12:02:43.682Z,69.4
2019-01-09T12:03:43.636Z,69.9
2019-01-09T12:04:43.569Z,70.2
2019-01-09T12:05:43.548Z,70.1
2019-01-09T12:06:43.541Z,70.2
2019-01-09T12:07:43.614Z,70.6
2019-01-09T12:08:43.539Z,70.4
2019-01-09T12:09:43.656Z,70.6
2019-01-09T12:10:43.568Z,69.9
2019-01-09T12:11:43.524Z,69.7
2019-01-09T12:12:43.642Z,70.1
2019-01-09T12:13:43.496Z,69.8
2019-01-09T12:14:43.626Z,70.3
2019-01-09T12:15:43.533Z,70.7
2019-01-09T12:16:43.517Z,70.5
2019-01-09T12:17:43.522Z,70.1
2019-01-09T12:18:43.502Z,70.9
2019-01-09T12:19:43.581Z,71.8
2019-01-09T12:20:43.522Z,72
2019-01-09T12:21:43.508Z,73.2
2019-01-09T12:22:43.586Z,73.7
2019-01-09T12:23:43.601Z,74.1
2019-01-09T12:24:43.544Z,73.2
2019-01-09T12:25:43.576Z,73.2
2019-01-09T12:26:43.557Z,74.1
2019-01-09T12:27:43.537Z,74.9
2019-01-09T12:28:43.512Z,75.2
2019-01-09T12:29:43.518Z,74.6
2019-01-09T12:30:43.567Z,74.4
2019-01-09T12:31:43.574Z,75.2
2019-01-09T12:32:43.499Z,75.4
2019-01-09T12:33:43.500Z,76.6
2019-01-09T12:34:43.490Z,77
2019-01-09T12:35:43.573Z,77.3
2019-01-09T12:36:43.558Z,78.4
2019-01-09T12:37:43.503Z,78.9
2019-01-09T12:38:43.510Z,79
2019-01-09T12:39:43.485Z,78.4
2019-01-09T12:40:43.550Z,77.9
2019-01-09T12:41:43.494Z,78.2
2019-01-09T12:42:43.497Z,78.5
2019-01-09T12:43:43.651Z,78.9
2019-01-09T12:44:43.500Z,78.3
2019-01-09T12:45:43.483Z,78.6
2019-01-09T12:46:43.570Z,78.5
2019-01-09T12:47:43.492Z,78.9
2019-01-09T12:48:43.505Z,79.1
2019-01-09T12:49:43.563Z,79.1
2019-01-09T12:50:43.481Z,79.5
2019-01-09T12:51:43.491Z,79.2
2019-01-09T12:52:43.579Z,80
2019-01-09T12:53:43.489Z,80.2
2019-01-09T12:54:43.506Z,79.9
2019-01-09T12:55:43.491Z,79.1
2019-01-09T12:56:43.488Z,78
2019-01-09T12:57:43.562Z,77.2
2019-01-09T12:58:43.483Z,78.1
2019-01-09T12:59:43.502Z,78
2019-01-09T13:00:43.492Z,77.5
2019-01-09T13:01:43.478Z,77.8
2019-01-09T13:02:43.550Z,77.6
2019-01-09T13:03:43.494Z,77.6
2019-01-09T13:04:43.575Z,78.5
2019-01-09T13:05:43.484Z,79.3
2019-01-09T13:06:43.542Z,79
2019-01-09T13:07:43.526Z,79.3
2019-01-09T13:08:43.482Z,78.5
2019-01-09T13:09:43.564Z,77.8
2019-01-09T13:10:43.486Z,76.2
2019-01-09T13:11:43.481Z,76.1
2019-01-09T13:12:43.476Z,75.2
2019-01-09T13:13:43.546Z,74.8
2019-01-09T13:14:43.488Z,73.7
2019-01-09T13:15:43.482Z,74
2019-01-09T13:16:47.779Z,74.6
2019-01-09T13:17:43.488Z,74.1
2019-01-09T13:18:43.538Z,74.8
2019-01-09T13:19:43.481Z,76
2019-01-09T13:20:43.477Z,76.4
2019-01-09T13:21:43.478Z,76
2019-01-09T13:22:43.546Z,75.3
2019-01-09T13:23:43.468Z,74.5
2019-01-09T13:24:43.483Z,73.5